Time;durP1;ratioP1;P1;durP2;ratioP2;P2;SDS_P1;SDS_P2;PMS_P1;PMS_P2;Temp;Humidity;BMP_temperature;BMP_pressure;BME280_temperature;BME280_humidity;BME280_pressure;Samples;Min_cycle;Max_cycle;Signal;HPM_P1;HPM_P2
2021/03/14 00:01:21;;;;;;;25.05;11.35;;;;;;;1.92;77.42;98686.55;1738319;76;21373;-82
2021/03/14 00:03:49;;;;;;;25.25;10.03;;;;;;;1.88;77.15;98681.42;1750922;76;21303;-84
2021/03/14 00:06:17;;;;;;;27.93;11.38;;;;;;;1.84;77.93;98680.55;1754941;79;21275;-82
2021/03/14 00:08:44;;;;;;;26.75;11.70;;;;;;;1.78;79.95;98685.22;1781721;78;21199;-82
2021/03/14 00:11:12;;;;;;;28.17;11.57;;;;;;;1.76;78.67;98679.23;1765085;76;21296;-82
2021/03/14 00:13:40;;;;;;;26.87;11.28;;;;;;;1.71;79.79;98683.50;1737526;77;21237;-84
2021/03/14 00:16:09;;;;;;;34.30;12.50;;;;;;;1.66;82.17;98674.08;1708055;78;21326;-83
2021/03/14 00:18:41;;;;;;;28.15;12.18;;;;;;;1.65;81.77;98679.64;1680885;80;21166;-83
2021/03/14 00:24:26;;;;;;;35.55;11.80;;;;;;;1.66;78.94;98668.95;1743585;76;21204;-82
2021/03/14 00:27:03;;;;;;;25.67;12.03;;;;;;;1.64;79.75;98666.38;1761254;76;21291;31
2021/03/14 00:32:56;;;;;;;26.77;12.10;;;;;;;1.48;79.03;98627.03;1716215;79;21320;-83
2021/03/14 00:35:25;;;;;;;31.60;12.53;;;;;;;1.63;79.51;98662.52;1729195;77;21269;-80
2021/03/14 00:37:54;;;;;;;33.58;14.18;;;;;;;1.35;80.19;98615.89;1717361;82;21153;-83
2021/03/14 00:43:03;;;;;;;32.05;13.85;;;;;;;1.52;78.44;98652.24;1666044;83;21232;-83
2021/03/14 00:45:34;;;;;;;32.25;12.90;;;;;;;1.45;77.23;98657.75;1726413;79;21274;-82
2021/03/14 00:48:04;;;;;;;34.15;12.75;;;;;;;1.40;77.16;98654.33;1735943;81;21271;-84
2021/03/14 00:50:39;;;;;;;29.60;12.58;;;;;;;1.34;79.46;98644.05;1744973;80;21153;-85
2021/03/14 00:53:10;;;;;;;31.25;12.68;;;;;;;1.29;80.97;98641.45;1767917;78;21256;-85
2021/03/14 00:55:40;;;;;;;32.40;12.85;;;;;;;1.26;79.05;98635.48;1734665;80;21766;-83
2021/03/14 00:58:08;;;;;;;27.98;11.35;;;;;;;1.25;79.59;98636.31;1732411;78;21196;-82
2021/03/14 01:00:39;;;;;;;32.28;12.63;;;;;;;1.23;78.04;98630.33;1685724;81;21300;31
2021/03/14 01:06:45;;;;;;;35.38;13.13;;;;;;;1.23;79.30;98619.66;1713492;78;22618;31
2021/03/14 01:12:54;;;;;;;54.85;18.45;;;;;;;1.28;79.88;98614.14;1744475;76;22974;31
2021/03/14 01:18:47;;;;;;;38.42;15.88;;;;;;;1.34;79.30;98606.48;1747709;79;21229;-81
2021/03/14 01:21:15;;;;;;;40.12;14.93;;;;;;;1.33;81.58;98611.20;1773894;77;21324;-81
2021/03/14 01:26:22;;;;;;;37.03;14.95;;;;;;;1.28;81.21;98605.61;1728911;82;21189;-84
2021/03/14 01:32:04;;;;;;;29.42;12.23;;;;;;;1.19;81.42;98597.05;1734983;80;21129;-82
2021/03/14 01:37:56;;;;;;;28.98;11.85;;;;;;;1.13;81.45;98586.75;1753238;79;21167;-83
2021/03/14 02:00:23;;;;;;;31.48;12.60;;;;;;;0.94;80.33;98564.50;1731089;77;21263;-83
2021/03/14 02:09:47;;;;;;;33.80;12.30;;;;;;;0.92;82.80;98549.55;1759076;76;21269;31
2021/03/14 02:12:21;;;;;;;31.68;11.20;;;;;;;0.91;80.65;98561.91;1723192;78;21885;31
2021/03/14 02:31:52;;;;;;;33.83;13.32;;;;;;;0.85;80.73;98558.04;1751654;76;21186;-82
2021/03/14 02:34:29;;;;;;;33.43;13.50;;;;;;;0.82;82.72;98555.05;1760847;76;21203;-81
2021/03/14 02:37:16;;;;;;;30.75;13.00;;;;;;;0.83;81.57;98547.78;1730030;78;21154;31
2021/03/14 02:39:46;;;;;;;41.35;16.17;;;;;;;0.86;81.20;98543.13;1735091;76;21291;-80
2021/03/14 02:42:14;;;;;;;51.28;18.40;;;;;;;0.84;81.81;98543.12;1695014;81;21280;-82
2021/03/14 02:47:44;;;;;;;32.07;13.63;;;;;;;0.90;80.89;98545.70;1734491;75;21309;-76
2021/03/14 02:50:16;;;;;;;28.42;12.65;;;;;;;0.95;81.78;98538.03;1723197;81;21205;-83
2021/03/14 02:52:46;;;;;;;25.85;11.85;;;;;;;1.02;81.54;98540.22;1716011;77;21167;-83
2021/03/14 02:55:27;;;;;;;25.00;12.00;;;;;;;1.03;81.69;98535.52;1731319;77;21362;31
2021/03/14 02:57:56;;;;;;;33.28;14.03;;;;;;;1.02;81.43;98545.34;1723657;81;21570;-85
2021/03/14 03:05:59;;;;;;;27.52;11.97;;;;;;;1.11;80.76;98540.23;1791606;77;21134;-84
2021/03/14 03:11:24;;;;;;;30.90;13.32;;;;;;;1.15;81.17;98539.39;1732791;76;21157;-83
2021/03/14 03:13:53;;;;;;;31.37;13.08;;;;;;;1.06;82.13;98545.78;1731368;79;21117;-82
2021/03/14 03:22:40;;;;;;;37.00;16.27;;;;;;;1.04;82.51;98534.68;1709132;77;21228;31
2021/03/14 03:25:14;;;;;;;34.48;14.47;;;;;;;1.06;82.62;98538.10;1738555;78;21359;31
2021/03/14 03:47:58;;;;;;;26.30;11.20;;;;;;;0.92;81.95;98518.84;1721082;78;21284;31
2021/03/14 03:50:28;;;;;;;27.02;12.65;;;;;;;0.85;84.11;98517.94;1751619;78;21626;-82
2021/03/14 03:52:57;;;;;;;28.95;13.13;;;;;;;0.83;81.26;98529.87;1775225;76;21290;-76
2021/03/14 03:55:27;;;;;;;28.27;12.35;;;;;;;0.79;82.08;98528.15;1756814;76;21602;-79
2021/03/14 04:01:20;;;;;;;26.53;11.90;;;;;;;0.73;79.61;98532.81;1784134;77;21196;-81
2021/03/14 04:06:58;;;;;;;28.02;12.50;;;;;;;0.63;81.20;98527.64;1724623;81;21293;-83
2021/03/14 04:09:32;;;;;;;27.60;12.63;;;;;;;0.59;84.16;98519.94;1751344;77;21306;31
2021/03/14 04:18:51;;;;;;;29.87;13.00;;;;;;;0.59;81.49;98504.59;1779565;76;21141;-82
2021/03/14 04:21:21;;;;;;;31.27;13.95;;;;;;;0.55;83.70;98508.41;1765781;76;21163;-83
2021/03/14 04:36:49;;;;;;;27.27;12.68;;;;;;;0.51;82.46;98522.87;1763117;77;21119;-81
2021/03/14 04:49:10;;;;;;;24.82;11.55;;;;;;;0.78;81.68;98506.83;1759351;76;21315;-82
2021/03/14 04:51:43;;;;;;;23.83;10.40;;;;;;;0.87;82.29;98505.16;1694159;81;21296;-82
2021/03/14 04:54:13;;;;;;;21.00;10.63;;;;;;;0.92;81.33;98499.65;1765076;77;21330;-83
2021/03/14 04:56:43;;;;;;;19.92;10.60;;;;;;;0.89;82.48;98496.62;1770777;78;21315;-81
2021/03/14 05:02:36;;;;;;;24.05;10.18;;;;;;;0.89;83.18;98497.91;1747020;76;21253;-82
2021/03/14 05:05:06;;;;;;;19.60;8.60;;;;;;;0.90;82.96;98489.39;1752879;78;21265;-83
2021/03/14 05:07:36;;;;;;;27.45;8.78;;;;;;;0.93;83.75;98493.66;1782602;77;21295;-83
2021/03/14 05:10:08;;;;;;;21.50;9.13;;;;;;;0.95;82.37;98491.53;1806287;77;21177;-83
2021/03/14 05:12:38;;;;;;;18.25;8.80;;;;;;;0.96;81.78;98489.41;1795234;77;21252;-82
2021/03/14 05:18:13;;;;;;;27.42;9.78;;;;;;;1.00;80.81;98478.77;1758056;76;21503;-84
2021/03/14 05:20:41;;;;;;;22.70;8.45;;;;;;;1.01;81.87;98490.70;1767915;76;21224;-82
2021/03/14 06:12:15;;;;;;;27.17;11.08;;;;;;;1.65;80.94;98452.86;1719574;78;21147;-81
2021/03/14 06:14:43;;;;;;;26.80;11.75;;;;;;;1.66;81.08;98451.14;1691480;83;21294;-82
2021/03/14 06:17:11;;;;;;;25.00;10.65;;;;;;;1.67;80.11;98444.75;1694232;81;21212;-81
2021/03/14 06:26:13;;;;;;;23.92;10.53;;;;;;;1.70;81.93;98441.32;1650026;81;21297;-80
2021/03/14 06:28:41;;;;;;;31.62;11.38;;;;;;;1.70;82.23;98438.33;1706386;81;21251;-79
2021/03/14 06:31:19;;;;;;;28.35;11.70;;;;;;;1.76;81.76;98437.47;1697967;82;21214;-82
2021/03/14 06:37:23;;;;;;;27.17;13.80;;;;;;;1.90;80.91;98425.93;1605260;87;21319;-84
2021/03/14 06:39:51;;;;;;;28.38;13.35;;;;;;;1.97;80.65;98428.48;1597147;87;21304;-84
2021/03/14 06:42:31;;;;;;;29.85;13.50;;;;;;;2.05;80.90;98427.60;1668015;84;21173;-84
2021/03/14 06:48:24;;;;;;;29.15;14.20;;;;;;;2.21;81.00;98421.61;1680075;80;21217;-83
2021/03/14 06:50:52;;;;;;;30.43;12.98;;;;;;;2.32;80.70;98422.86;1698478;80;21118;-83
2021/03/14 06:56:37;;;;;;;29.02;13.40;;;;;;;2.53;80.75;98416.37;1680544;80;21164;-82
2021/03/14 06:59:19;;;;;;;30.80;13.48;;;;;;;2.67;80.79;98424.02;1696147;83;21264;-82
2021/03/14 07:02:00;;;;;;;32.08;14.85;;;;;;;2.61;80.54;98388.13;1687295;81;21598;-83
2021/03/14 07:04:48;;;;;;;31.57;13.85;;;;;;;2.97;79.94;98416.59;1854185;76;22351;-84
2021/03/14 07:07:32;;;;;;;34.15;13.50;;;;;;;3.08;80.02;98410.55;1773439;76;21310;-87
2021/03/14 07:10:08;;;;;;;28.55;14.00;;;;;;;3.26;79.41;98414.27;1718113;81;21302;-87
2021/03/14 07:12:38;;;;;;;34.98;14.98;;;;;;;3.45;79.36;98409.02;1710012;78;21196;-87
2021/03/14 07:15:16;;;;;;;33.18;15.05;;;;;;;3.63;78.97;98405.02;1709949;81;21244;-86
2021/03/14 07:18:00;;;;;;;38.38;14.38;;;;;;;3.83;78.84;98409.14;1699704;83;21186;-87
2021/03/14 07:20:31;;;;;;;30.30;14.98;;;;;;;4.05;78.84;98401.63;1703299;81;21200;-87
2021/03/14 07:23:06;;;;;;;29.27;15.10;;;;;;;4.30;78.57;98388.53;1702399;83;21251;-86
2021/03/14 07:25:41;;;;;;;33.95;14.90;;;;;;;4.53;78.50;98387.80;1693860;83;21141;-86
2021/03/14 07:28:10;;;;;;;36.48;18.45;;;;;;;4.77;78.07;98381.52;1682861;80;21165;-89
2021/03/14 07:30:38;;;;;;;33.28;17.50;;;;;;;4.97;76.40;98394.13;1687301;81;21306;-88
2021/03/14 07:33:06;;;;;;;30.97;16.60;;;;;;;5.11;76.55;98395.63;1701287;83;21183;-89
2021/03/14 07:35:34;;;;;;;44.23;21.80;;;;;;;5.19;75.59;98400.23;1701520;82;21154;-87
2021/03/14 07:38:01;;;;;;;36.88;19.70;;;;;;;5.25;75.48;98400.17;1706080;83;21175;-89
2021/03/14 07:40:30;;;;;;;32.75;16.90;;;;;;;5.33;75.19;98395.75;1702050;83;21623;-89
2021/03/14 07:43:00;;;;;;;37.15;19.57;;;;;;;5.45;75.14;98399.00;1703119;81;21156;-86
2021/03/14 07:45:31;;;;;;;42.85;21.65;;;;;;;5.40;74.55;98395.66;1704732;80;22314;-90
2021/03/14 07:48:01;;;;;;;45.63;21.70;;;;;;;5.45;74.40;98401.58;1698097;81;21155;-88
2021/03/14 07:50:45;;;;;;;30.30;15.03;;;;;;;5.50;74.05;98401.08;1673282;81;21178;-89
2021/03/14 07:53:15;;;;;;;;;;;;;;;5.63;74.15;98393.98;1664861;83;21162;-88
2021/03/14 07:55:56;;;;;;;29.30;14.90;;;;;;;5.67;73.97;98399.09;1656833;84;20486;-88
2021/03/14 07:58:24;;;;;;;33.75;17.30;;;;;;;5.75;73.62;98400.25;1714341;81;21177;-90
2021/03/14 08:00:52;;;;;;;29.95;15.50;;;;;;;5.94;73.75;98391.74;1716694;80;21166;-90
2021/03/14 08:03:36;;;;;;;59.73;29.27;;;;;;;6.07;72.68;98395.84;1729730;81;21172;-87
2021/03/14 08:06:05;;;;;;;45.30;23.05;;;;;;;6.23;73.32;98399.41;1677965;84;21290;-86
2021/03/14 08:08:41;;;;;;;39.10;23.40;;;;;;;6.44;72.45;98399.01;1711367;82;21270;-86
2021/03/14 08:11:36;;;;;;;33.45;19.52;;;;;;;6.61;72.85;98394.81;1718434;81;21310;-91
2021/03/14 08:14:04;;;;;;;33.30;18.17;;;;;;;6.82;72.65;98383.62;1707599;81;21147;-89
2021/03/14 08:16:31;;;;;;;33.33;15.75;;;;;;;6.99;71.40;98377.65;1732181;81;21162;-88
2021/03/14 08:19:12;;;;;;;37.00;20.88;;;;;;;7.10;70.30;98372.23;1695603;79;21210;-88
2021/03/14 08:21:42;;;;;;;31.87;16.07;;;;;;;7.23;71.34;98366.35;1588240;89;21442;-89
2021/03/14 08:24:14;;;;;;;25.82;14.83;;;;;;;7.29;71.08;98371.38;1587671;86;21185;-87
2021/03/14 08:26:42;;;;;;;26.93;14.20;;;;;;;7.25;70.18;98368.01;1658500;85;21209;-85
2021/03/14 08:29:13;;;;;;;24.35;14.45;;;;;;;7.27;70.25;98361.06;1726784;80;21258;-86
2021/03/14 08:31:54;;;;;;;25.97;14.23;;;;;;;7.21;68.27;98365.09;1727261;80;21306;-86
2021/03/14 08:34:32;;;;;;;28.35;12.88;;;;;;;7.18;68.81;98361.27;1727689;81;21156;-85
2021/03/14 08:37:02;;;;;;;27.73;14.73;;;;;;;7.16;68.59;98369.08;1777058;79;21161;-87
2021/03/14 08:39:44;;;;;;;26.00;14.05;;;;;;;7.28;68.65;98364.08;1835842;76;22861;-90
2021/03/14 08:42:16;;;;;;;24.95;13.10;;;;;;;7.30;68.22;98359.72;1778544;79;21124;-89
2021/03/14 08:44:55;;;;;;;22.75;12.85;;;;;;;7.42;66.60;98356.41;1818466;78;22914;-89
2021/03/14 08:47:27;;;;;;;41.02;18.67;;;;;;;7.49;67.73;98356.67;1703352;79;21157;-88
2021/03/14 08:50:04;;;;;;;24.90;11.95;;;;;;;7.74;68.14;98351.30;1818520;78;23348;-89
2021/03/14 08:52:34;;;;;;;24.85;12.13;;;;;;;7.90;67.36;98358.22;1791808;77;21602;-89
2021/03/14 08:55:12;;;;;;;21.05;11.35;;;;;;;8.11;64.61;98363.26;1811256;78;22916;-90
2021/03/14 08:57:40;;;;;;;22.75;12.55;;;;;;;8.20;65.49;98354.41;1783408;78;21351;-88
2021/03/14 09:00:11;;;;;;;25.82;12.50;;;;;;;8.31;64.80;98345.88;1652522;80;21199;-92
2021/03/14 09:02:40;;;;;;;32.38;13.98;;;;;;;8.49;65.06;98331.59;1786696;80;21287;-90
2021/03/14 09:05:24;;;;;;;23.32;13.75;;;;;;;8.73;65.93;98331.77;1777970;77;21210;-89
2021/03/14 09:08:01;;;;;;;24.00;11.05;;;;;;;8.83;65.26;98296.91;1639094;86;21664;-87
2021/03/14 09:10:37;;;;;;;22.65;11.70;;;;;;;9.35;64.42;98319.91;1890190;74;22928;-91
2021/03/14 09:13:12;;;;;;;21.77;12.30;;;;;;;9.59;63.87;98320.43;1789806;77;21168;-85
2021/03/14 09:15:49;;;;;;;23.02;13.50;;;;;;;9.87;63.41;98317.77;1834108;77;22665;-85
2021/03/14 09:18:28;;;;;;;21.68;12.18;;;;;;;9.95;62.76;98312.70;1784972;80;21622;-85
2021/03/14 09:21:01;;;;;;;22.70;12.60;;;;;;;10.14;62.40;98312.88;1803706;77;21129;-90
2021/03/14 09:23:42;;;;;;;23.73;12.82;;;;;;;10.24;61.92;98309.95;1733968;79;21151;-88
2021/03/14 09:26:13;;;;;;;21.42;11.80;;;;;;;10.45;61.13;98303.17;1725339;82;21299;-86
2021/03/14 09:28:45;;;;;;;19.07;10.13;;;;;;;10.63;61.66;98301.63;1715112;83;21276;-87
2021/03/14 09:31:14;;;;;;;22.10;10.63;;;;;;;10.74;59.25;98293.81;1700245;81;22373;-86
2021/03/14 09:33:44;;;;;;;20.37;10.30;;;;;;;10.78;60.07;98298.42;1727735;82;21298;-86
2021/03/14 09:36:14;;;;;;;20.50;11.45;;;;;;;10.69;56.45;98309.20;1746450;82;21128;-86
2021/03/14 09:38:59;;;;;;;23.35;12.07;;;;;;;10.71;57.16;98308.69;1805897;78;22897;-85
2021/03/14 09:41:45;;;;;;;24.95;14.03;;;;;;;10.65;58.97;98310.22;1786491;79;21290;-87
2021/03/14 09:44:31;;;;;;;28.73;13.03;;;;;;;10.59;59.79;98306.09;1748462;78;21266;-86
2021/03/14 09:47:03;;;;;;;19.95;11.15;;;;;;;10.58;58.95;98307.44;1749146;81;21266;-86
2021/03/14 09:49:35;;;;;;;20.97;11.70;;;;;;;10.65;59.62;98303.72;1729600;83;21283;-87
2021/03/14 09:52:05;;;;;;;23.42;11.38;;;;;;;10.80;60.75;98297.91;1731077;83;21248;-86
2021/03/14 09:54:34;;;;;;;22.02;11.12;;;;;;;10.82;58.78;98304.36;1743618;81;21495;-86
2021/03/14 09:57:02;;;;;;;18.82;10.55;;;;;;;10.93;59.66;98295.70;1705070;84;21294;-86
2021/03/14 09:59:44;;;;;;;25.43;11.35;;;;;;;10.94;58.42;98303.45;1747828;82;21321;-85
2021/03/14 10:02:17;;;;;;;24.07;12.07;;;;;;;10.90;56.63;98302.30;1750334;81;21254;-85
2021/03/14 10:05:04;;;;;;;23.60;11.97;;;;;;;10.88;58.63;98311.48;1752183;81;21273;-84
2021/03/14 10:07:31;;;;;;;21.85;12.00;;;;;;;10.67;57.79;98265.52;1704531;84;21318;-85
2021/03/14 10:10:00;;;;;;;23.98;11.97;;;;;;;10.92;58.15;98293.55;1741211;82;21182;-84
2021/03/14 10:12:34;;;;;;;20.15;11.33;;;;;;;11.03;59.08;98285.31;1730554;82;21317;-85
2021/03/14 10:15:04;;;;;;;19.30;10.23;;;;;;;11.11;55.94;98288.45;1733291;82;21180;-85
2021/03/14 10:17:34;;;;;;;20.00;10.03;;;;;;;11.22;57.33;98278.06;1724669;81;21131;-87
2021/03/14 10:20:03;;;;;;;21.35;11.10;;;;;;;11.33;59.25;98270.21;1750537;80;21254;-84
2021/03/14 10:22:32;;;;;;;20.20;11.10;;;;;;;11.45;57.11;98266.72;1750178;82;21305;-84
2021/03/14 10:25:34;;;;;;;23.98;10.50;;;;;;;11.69;56.82;98266.97;1818066;78;24371;-83
2021/03/14 10:28:14;;;;;;;18.37;9.10;;;;;;;11.81;55.01;98263.45;1804858;79;21406;-85
2021/03/14 10:30:56;;;;;;;20.80;11.65;;;;;;;12.08;52.69;98266.19;1829753;77;22262;-84
2021/03/14 10:33:32;;;;;;;21.87;10.48;;;;;;;12.21;54.27;98270.84;1806921;79;21173;-86
2021/03/14 10:36:09;;;;;;;19.37;8.73;;;;;;;12.27;54.70;98264.89;1805671;79;21209;-87
2021/03/14 10:38:47;;;;;;;18.23;8.60;;;;;;;12.41;55.19;98273.86;1790410;80;21130;-86
2021/03/14 10:41:24;;;;;;;15.35;8.45;;;;;;;12.48;49.80;98277.88;1818725;78;22904;-88
2021/03/14 10:44:01;;;;;;;15.75;7.95;;;;;;;12.51;53.61;98275.98;1750896;82;21261;-87
2021/03/14 10:46:42;;;;;;;23.77;8.60;;;;;;;12.50;53.51;98278.19;1820709;77;21286;-87
2021/03/14 10:49:15;;;;;;;15.10;8.08;;;;;;;12.54;53.92;98286.72;1815598;79;21233;-84
2021/03/14 10:51:50;;;;;;;18.25;9.08;;;;;;;12.50;52.69;98278.19;1751770;82;21316;-86
2021/03/14 10:54:20;;;;;;;21.57;8.90;;;;;;;12.42;52.18;98281.61;1751334;78;21255;-87
2021/03/14 10:56:50;;;;;;;22.52;10.50;;;;;;;12.39;54.65;98290.86;1754381;81;21281;-85
2021/03/14 10:59:28;;;;;;;22.17;9.60;;;;;;;12.31;55.06;98276.90;1754490;81;21214;-85
2021/03/14 11:02:35;;;;;;;15.68;8.13;;;;;;;12.20;54.91;98273.08;1823853;77;22966;-87
2021/03/14 11:04:57;;;;;;;13.85;7.40;;;;;;;12.14;55.49;98271.59;1797586;78;21297;-85
2021/03/14 11:07:31;;;;;;;12.85;6.72;;;;;;;12.02;55.92;98270.84;1798732;78;21293;-84
2021/03/14 11:10:17;;;;;;;14.75;6.42;;;;;;;11.88;55.65;98263.59;1798596;80;21272;-86
2021/03/14 11:12:50;;;;;;;12.00;7.35;;;;;;;11.82;55.46;98258.66;1827424;78;21105;-85
2021/03/14 11:15:31;;;;;;;12.47;6.15;;;;;;;11.77;56.30;98257.53;1761708;81;21270;-85
2021/03/14 11:18:25;;;;;;;13.13;6.65;;;;;;;11.82;56.33;98260.80;1825748;78;22931;-88
2021/03/14 11:21:03;;;;;;;11.93;7.15;;;;;;;11.82;57.06;98269.07;1738400;82;21271;-84
2021/03/14 11:23:31;;;;;;;12.58;6.28;;;;;;;11.86;58.30;98275.84;1720055;82;21222;-85
2021/03/14 11:25:59;;;;;;;13.40;7.85;;;;;;;12.01;58.19;98282.16;1812318;79;21681;-85
2021/03/14 11:28:27;;;;;;;12.68;7.35;;;;;;;12.19;58.32;98288.31;1806030;78;21292;-85
2021/03/14 11:30:55;;;;;;;15.18;7.60;;;;;;;12.28;59.16;98279.63;1802952;78;21295;-85
2021/03/14 11:33:24;;;;;;;13.05;7.62;;;;;;;12.37;58.13;98284.88;1812432;79;21269;-85
2021/03/14 11:36:00;;;;;;;16.12;9.55;;;;;;;12.38;58.32;98280.06;1832593;76;28135;-86
2021/03/14 11:38:29;;;;;;;13.03;8.18;;;;;;;12.43;58.63;98266.34;1801367;79;21248;-85
2021/03/14 11:41:18;;;;;;;15.00;9.10;;;;;;;12.16;59.14;98271.06;1810695;79;22947;-88
2021/03/14 11:43:50;;;;;;;14.33;7.30;;;;;;;12.18;59.68;98260.58;1808083;79;21280;-83
2021/03/14 11:46:20;;;;;;;14.20;7.92;;;;;;;12.02;59.84;98263.86;1750450;82;21274;-84
2021/03/14 11:48:56;;;;;;;15.00;7.25;;;;;;;12.08;59.53;98260.14;1770821;78;21331;-84
2021/03/14 11:51:24;;;;;;;14.07;7.20;;;;;;;12.03;59.67;98243.39;1773262;81;21275;-85
2021/03/14 11:53:55;;;;;;;13.70;6.35;;;;;;;12.17;58.85;98238.86;1772598;81;21289;-84
2021/03/14 11:56:25;;;;;;;13.70;6.33;;;;;;;12.26;59.27;98231.94;1766755;81;21276;-85
2021/03/14 11:58:57;;;;;;;13.93;6.03;;;;;;;12.39;58.67;98233.52;1792731;79;21280;-84
2021/03/14 12:01:25;;;;;;;12.63;6.12;;;;;;;12.64;59.22;98230.62;1791870;79;21270;-85
2021/03/14 12:03:55;;;;;;;18.62;6.78;;;;;;;12.90;58.33;98215.48;1811362;79;21293;-84
2021/03/14 12:06:23;;;;;;;17.37;7.22;;;;;;;13.39;59.13;98210.48;1803832;80;21282;-85
2021/03/14 12:08:53;;;;;;;13.13;6.67;;;;;;;13.97;56.44;98198.78;1802072;79;21272;-85
2021/03/14 12:11:21;;;;;;;12.15;6.50;;;;;;;14.64;57.40;98194.29;1741328;81;21180;-85
2021/03/14 12:13:50;;;;;;;14.90;6.65;;;;;;;15.22;56.24;98186.63;1798137;79;21288;-85
2021/03/14 12:16:25;;;;;;;15.10;6.97;;;;;;;15.63;52.67;98179.41;1790035;79;21727;-84
2021/03/14 12:18:54;;;;;;;10.58;4.35;;;;;;;16.40;52.29;98174.22;1804446;79;21101;-85
2021/03/14 12:21:24;;;;;;;11.63;5.03;;;;;;;17.08;52.55;98165.94;1795785;79;21271;-85
2021/03/14 12:23:53;;;;;;;16.57;6.35;;;;;;;17.62;48.73;98160.51;1794806;79;21324;-85
2021/03/14 12:26:22;;;;;;;9.78;5.55;;;;;;;18.44;49.23;98150.41;1812453;79;21161;-84
2021/03/14 12:28:53;;;;;;;11.85;5.40;;;;;;;18.82;47.19;98141.98;1782296;79;21302;-85
2021/03/14 12:31:23;;;;;;;12.90;5.80;;;;;;;19.58;43.92;98135.36;1779608;80;21169;-85
2021/03/14 12:33:52;;;;;;;12.75;5.80;;;;;;;20.11;47.67;98140.03;1809438;79;21300;-84
2021/03/14 12:36:20;;;;;;;10.72;5.60;;;;;;;20.14;38.73;98138.97;1718460;82;21162;-85
2021/03/14 12:39:03;;;;;;;11.33;5.95;;;;;;;20.18;39.88;98133.32;1825123;77;22894;-86
2021/03/14 12:41:32;;;;;;;9.50;5.83;;;;;;;20.03;43.44;98134.08;1814513;78;21287;-85
2021/03/14 12:44:00;;;;;;;11.03;5.17;;;;;;;19.68;42.35;98136.31;1807626;78;21316;-86
2021/03/14 12:46:28;;;;;;;8.18;5.17;;;;;;;19.39;42.57;98124.55;1776224;80;21248;-86
2021/03/14 12:48:56;;;;;;;9.55;5.42;;;;;;;19.11;43.68;98129.28;1799168;78;21291;-85
2021/03/14 12:51:24;;;;;;;14.53;5.83;;;;;;;18.58;43.60;98119.59;1807226;78;21272;-85
2021/03/14 12:53:51;;;;;;;11.25;5.35;;;;;;;18.17;43.04;98126.91;1809973;78;21178;-85
2021/03/14 12:56:20;;;;;;;16.57;6.28;;;;;;;18.10;44.68;98120.40;1762524;81;21169;-85
2021/03/14 12:58:52;;;;;;;13.68;6.03;;;;;;;17.95;45.08;98122.34;1751471;81;21143;-85
2021/03/14 13:01:20;;;;;;;11.12;6.87;;;;;;;17.70;45.25;98114.81;1781631;80;21696;-84
2021/03/14 13:03:48;;;;;;;12.43;6.25;;;;;;;17.59;45.70;98112.12;1775442;81;21312;-85
2021/03/14 13:06:15;;;;;;;12.80;5.95;;;;;;;17.45;45.91;98105.67;1775879;81;21883;-85
2021/03/14 13:08:43;;;;;;;11.45;6.20;;;;;;;17.30;45.47;98101.81;1775796;80;21254;-85
2021/03/14 13:11:11;;;;;;;11.93;6.12;;;;;;;16.98;45.89;98104.48;1776020;80;21256;-84
2021/03/14 13:13:38;;;;;;;10.68;6.00;;;;;;;16.60;46.48;98099.95;1776385;80;21335;-85
2021/03/14 13:16:06;;;;;;;10.03;5.78;;;;;;;16.33;47.49;98102.10;1755666;81;21171;-85
2021/03/14 13:18:33;;;;;;;15.72;7.47;;;;;;;16.14;47.88;98098.52;1771721;80;21344;-85
2021/03/14 13:21:01;;;;;;;9.60;5.72;;;;;;;15.92;48.23;98095.11;1777716;80;21344;-85
2021/03/14 13:23:33;;;;;;;10.10;5.25;;;;;;;15.76;48.97;98095.23;1767599;80;21268;-85
2021/03/14 13:25:57;;;;;;;11.22;5.53;;;;;;;15.63;49.06;98102.13;1758821;81;21291;-84
2021/03/14 13:28:25;;;;;;;13.10;5.17;;;;;;;15.45;48.87;98108.84;1756842;81;21169;-85
2021/03/14 13:30:52;;;;;;;14.73;6.00;;;;;;;15.37;49.54;98112.88;1773757;81;21307;-84
2021/03/14 13:33:19;;;;;;;12.68;5.40;;;;;;;15.28;49.40;98112.50;1760354;81;21287;-85
2021/03/14 13:35:47;;;;;;;13.55;5.65;;;;;;;15.13;49.47;98109.48;1747412;82;21204;-85
2021/03/14 13:38:14;;;;;;;12.23;5.53;;;;;;;15.03;49.44;98108.34;1753419;81;21299;-85
2021/03/14 13:40:42;;;;;;;14.13;6.00;;;;;;;14.94;50.22;98108.88;1758544;81;21291;-86
2021/03/14 13:43:10;;;;;;;15.05;6.58;;;;;;;14.99;49.83;98104.22;1753937;81;21268;-84
2021/03/14 13:45:38;;;;;;;14.70;6.65;;;;;;;14.88;50.11;98097.85;1759376;81;21296;-85
2021/03/14 13:48:07;;;;;;;13.70;6.60;;;;;;;14.81;51.37;98098.30;1748689;81;21192;-85
2021/03/14 13:50:34;;;;;;;10.90;6.08;;;;;;;14.76;50.63;98104.24;1742695;81;21737;-84
2021/03/14 13:53:02;;;;;;;13.20;7.17;;;;;;;14.61;51.00;98101.59;1746886;81;21152;-84
2021/03/14 13:55:29;;;;;;;15.85;7.25;;;;;;;14.61;50.98;98104.20;1754890;81;21148;-84
2021/03/14 13:57:58;;;;;;;20.90;7.80;;;;;;;14.57;51.33;98100.08;1761488;81;21130;-85
2021/03/14 14:00:26;;;;;;;13.90;7.28;;;;;;;14.57;50.92;98097.94;1758778;81;21152;-84
2021/03/14 14:02:56;;;;;;;17.75;6.80;;;;;;;14.46;51.08;98090.66;1736947;83;21144;-84
2021/03/14 14:05:25;;;;;;;19.42;6.92;;;;;;;14.42;51.48;98106.98;1735933;83;21267;-84
2021/03/14 14:07:52;;;;;;;16.93;6.75;;;;;;;14.40;51.32;98102.77;1732874;83;21157;-83
2021/03/14 14:10:23;;;;;;;10.75;5.83;;;;;;;14.29;52.21;98105.53;1755157;82;21213;-82
2021/03/14 14:12:50;;;;;;;14.63;6.22;;;;;;;14.22;52.04;98103.34;1734340;83;21140;-85
2021/03/14 14:15:17;;;;;;;14.23;5.65;;;;;;;14.24;52.93;98098.88;1764712;81;21799;-86
2021/03/14 14:17:45;;;;;;;12.03;5.05;;;;;;;14.31;53.29;98098.92;1746464;81;21208;-85
2021/03/14 14:20:13;;;;;;;11.43;4.55;;;;;;;14.37;53.47;98102.48;1746219;81;21251;-85
2021/03/14 14:22:41;;;;;;;6.60;3.83;;;;;;;14.39;55.55;98096.70;1746792;82;21320;-85
2021/03/14 14:25:09;;;;;;;6.37;3.67;;;;;;;14.63;53.99;98086.65;1718611;82;21757;-84
2021/03/14 14:27:37;;;;;;;7.10;3.62;;;;;;;14.63;54.32;98077.49;1728107;83;21505;-83
2021/03/14 14:30:09;;;;;;;8.85;4.58;;;;;;;14.79;53.77;98068.28;1726296;82;21151;-83
2021/03/14 14:32:36;;;;;;;8.33;3.22;;;;;;;14.93;53.56;98064.02;1748902;82;21169;-84
2021/03/14 14:35:06;;;;;;;10.88;4.97;;;;;;;14.98;53.27;98065.44;1727458;82;21296;-85
2021/03/14 14:37:34;;;;;;;9.78;4.20;;;;;;;14.91;53.43;98074.09;1730179;82;22082;-84
2021/03/14 14:40:01;;;;;;;11.75;4.65;;;;;;;14.81;52.86;98069.04;1792684;80;21284;-83
2021/03/14 14:42:28;;;;;;;9.38;3.60;;;;;;;14.68;53.08;98073.30;1808386;79;21890;-84
2021/03/14 14:44:56;;;;;;;15.58;4.62;;;;;;;14.52;52.62;98063.70;1821539;79;21122;-84
2021/03/14 14:47:25;;;;;;;8.88;3.67;;;;;;;14.23;53.42;98064.05;1813525;79;21624;-84
2021/03/14 14:49:53;;;;;;;10.72;3.60;;;;;;;14.11;54.08;98072.11;1801011;79;21264;-84
2021/03/14 14:52:20;;;;;;;8.35;4.30;;;;;;;13.99;54.67;98062.82;1772182;79;21291;-84
2021/03/14 14:54:48;;;;;;;11.30;5.20;;;;;;;13.97;54.67;98064.67;1819311;79;21185;-85
2021/03/14 14:57:15;;;;;;;11.80;4.70;;;;;;;13.88;55.62;98065.53;1821548;79;21299;-84
2021/03/14 14:59:43;;;;;;;15.45;5.65;;;;;;;13.88;55.50;98068.15;1804807;79;21106;-84
2021/03/14 15:02:11;;;;;;;12.28;6.00;;;;;;;13.88;55.70;98069.45;1818387;78;21236;-85
2021/03/14 15:04:38;;;;;;;15.78;8.18;;;;;;;13.92;55.32;98064.91;1821104;79;21156;-84
2021/03/14 15:07:06;;;;;;;20.43;10.38;;;;;;;13.98;56.00;98064.57;1800800;78;21147;-84
2021/03/14 15:09:33;;;;;;;14.78;6.97;;;;;;;14.02;56.05;98062.16;1784134;79;21280;-84
2021/03/14 15:12:01;;;;;;;11.95;5.90;;;;;;;14.04;56.65;98064.22;1758938;82;21292;-85
2021/03/14 15:14:29;;;;;;;13.00;5.80;;;;;;;14.04;55.20;98059.47;1718875;82;21278;-85
2021/03/14 15:16:56;;;;;;;11.05;4.60;;;;;;;13.93;56.90;98057.47;1806369;78;21264;-84
2021/03/14 15:19:23;;;;;;;8.53;3.98;;;;;;;13.88;56.58;98056.86;1794415;79;21319;-84
2021/03/14 15:21:51;;;;;;;13.13;4.20;;;;;;;13.78;56.41;98059.61;1792936;80;21114;-85
2021/03/14 15:24:19;;;;;;;11.25;4.00;;;;;;;13.72;56.33;98048.55;1810197;79;21637;-86
2021/03/14 15:26:46;;;;;;;6.28;3.27;;;;;;;13.65;56.32;98051.14;1821505;78;21280;-84